createdAt,value
2023-05-17T00:00:14.260Z,6.23
2023-05-17T00:02:41.005Z,6.87
2023-05-17T00:05:08.198Z,6.20
2023-05-17T00:07:34.971Z,6.20
2023-05-17T00:10:02.125Z,5.57
2023-05-17T00:12:28.977Z,5.87
2023-05-17T00:14:55.649Z,6.37
2023-05-17T00:17:22.332Z,6.13
2023-05-17T00:19:48.960Z,6.63
2023-05-17T00:22:15.603Z,6.10
2023-05-17T00:24:42.268Z,7.13
2023-05-17T00:27:08.995Z,7.87
2023-05-17T00:29:35.633Z,6.50
2023-05-17T00:32:03.221Z,6.37
2023-05-17T00:34:29.980Z,6.93
2023-05-17T00:36:56.675Z,6.70
2023-05-17T00:39:23.319Z,7.53
2023-05-17T00:41:50.329Z,6.80
2023-05-17T00:44:16.953Z,6.83
2023-05-17T00:46:43.585Z,7.67
2023-05-17T00:49:10.434Z,7.17
2023-05-17T00:51:37.532Z,6.63
2023-05-17T00:54:05.362Z,6.87
2023-05-17T00:56:34.135Z,6.67
2023-05-17T00:59:00.909Z,7.17
2023-05-17T01:01:27.705Z,7.03
2023-05-17T01:03:54.508Z,7.83
2023-05-17T01:06:21.268Z,7.13
2023-05-17T01:08:47.946Z,8.30
2023-05-17T01:11:32.120Z,8.07
2023-05-17T01:14:15.624Z,8.00
2023-05-17T01:16:56.979Z,6.73
2023-05-17T01:19:36.752Z,7.97
2023-05-17T01:22:40.533Z,7.63
2023-05-17T01:25:24.509Z,6.93
2023-05-17T01:27:54.343Z,7.37
2023-05-17T01:30:25.002Z,6.37
2023-05-17T01:32:56.653Z,7.70
2023-05-17T01:35:23.348Z,6.90
2023-05-17T01:37:50.138Z,6.17
2023-05-17T01:40:17.661Z,7.00
2023-05-17T01:42:45.230Z,6.67
2023-05-17T01:45:41.404Z,7.17
2023-05-17T01:48:40.720Z,6.70
2023-05-17T01:51:11.101Z,7.30
2023-05-17T01:53:48.398Z,6.53
2023-05-17T01:56:20.129Z,7.20
2023-05-17T01:58:49.183Z,6.77
2023-05-17T02:01:17.974Z,7.10
2023-05-17T02:03:49.778Z,6.13
2023-05-17T02:06:17.120Z,7.07
2023-05-17T02:08:43.817Z,7.00
2023-05-17T02:11:10.740Z,7.20
2023-05-17T02:13:37.410Z,6.00
2023-05-17T02:16:04.782Z,6.83
2023-05-17T02:18:32.767Z,6.90
2023-05-17T02:20:59.710Z,7.53
2023-05-17T02:23:26.442Z,6.63
2023-05-17T02:25:53.125Z,5.77
2023-05-17T02:28:19.802Z,5.63
2023-05-17T02:30:46.590Z,5.37
2023-05-17T02:33:13.413Z,5.47
2023-05-17T02:35:40.365Z,5.73
2023-05-17T02:38:07.067Z,5.50
2023-05-17T02:40:33.789Z,4.83
2023-05-17T02:43:00.666Z,5.47
2023-05-17T02:45:27.604Z,4.87
2023-05-17T02:47:54.460Z,4.93
2023-05-17T02:50:21.219Z,5.17
2023-05-17T02:52:47.957Z,5.67
2023-05-17T02:55:14.709Z,5.67
2023-05-17T02:57:41.350Z,5.53
2023-05-17T03:00:09.340Z,5.10
2023-05-17T03:02:36.377Z,4.30
2023-05-17T03:05:03.191Z,4.83
2023-05-17T03:07:29.856Z,5.30
2023-05-17T03:09:56.484Z,5.87
2023-05-17T03:12:23.147Z,4.80
2023-05-17T03:14:49.976Z,4.20
2023-05-17T03:17:16.618Z,4.97
2023-05-17T03:19:43.341Z,5.23
2023-05-17T03:22:10.054Z,5.53
2023-05-17T03:24:36.811Z,4.93
2023-05-17T03:27:03.983Z,5.37
2023-05-17T03:29:30.623Z,6.73
2023-05-17T03:31:57.362Z,6.83
2023-05-17T03:34:24.038Z,6.50
2023-05-17T03:36:50.818Z,6.07
2023-05-17T03:39:17.477Z,5.90
2023-05-17T03:41:44.182Z,5.43
2023-05-17T03:44:10.867Z,5.73
2023-05-17T03:46:37.579Z,5.43
2023-05-17T03:49:04.270Z,5.13
2023-05-17T03:51:31.007Z,5.50
2023-05-17T03:53:59.144Z,6.10
2023-05-17T03:56:25.882Z,6.60
2023-05-17T03:58:52.650Z,6.00
2023-05-17T04:01:20.542Z,6.43
2023-05-17T04:03:47.780Z,7.00
2023-05-17T04:06:14.892Z,6.47
2023-05-17T04:08:41.816Z,6.47
2023-05-17T04:11:13.405Z,6.80
2023-05-17T04:13:41.317Z,6.90
2023-05-17T04:16:09.349Z,7.47
2023-05-17T04:18:38.029Z,6.50
2023-05-17T04:21:05.715Z,7.97
2023-05-17T04:23:33.658Z,11.57
2023-05-17T04:26:00.381Z,8.67
2023-05-17T04:28:27.540Z,7.63
2023-05-17T04:30:54.391Z,8.27
2023-05-17T04:33:21.307Z,7.43
2023-05-17T04:35:48.097Z,8.43
2023-05-17T04:38:14.728Z,9.10
2023-05-17T04:40:41.364Z,8.43
2023-05-17T04:43:08.697Z,8.00
2023-05-17T04:45:35.475Z,7.37
2023-05-17T04:48:02.627Z,8.07
2023-05-17T04:50:29.646Z,8.67
2023-05-17T04:52:56.303Z,9.20
2023-05-17T04:55:23.056Z,8.60
2023-05-17T04:57:49.801Z,9.50
2023-05-17T05:00:17.168Z,9.83
2023-05-17T05:02:43.976Z,8.50
2023-05-17T05:05:11.041Z,10.20
2023-05-17T05:07:39.825Z,9.20
2023-05-17T05:10:07.336Z,9.57
2023-05-17T05:12:34.036Z,10.23
2023-05-17T05:15:01.298Z,9.80
2023-05-17T05:17:30.732Z,10.07
2023-05-17T05:19:57.519Z,10.57
2023-05-17T05:22:24.274Z,10.07
2023-05-17T05:24:51.126Z,10.17
2023-05-17T05:27:17.776Z,10.13
2023-05-17T05:29:44.487Z,9.70
2023-05-17T05:32:11.186Z,10.60
2023-05-17T05:34:39.018Z,10.77
2023-05-17T05:37:06.023Z,10.33
2023-05-17T05:39:32.719Z,9.63
2023-05-17T05:41:59.492Z,9.67
2023-05-17T05:44:26.172Z,9.47
2023-05-17T05:46:52.895Z,9.30
2023-05-17T05:49:19.821Z,10.23
2023-05-17T05:51:46.502Z,8.33
2023-05-17T05:54:14.189Z,8.80
2023-05-17T05:56:40.888Z,9.47
2023-05-17T05:59:07.669Z,9.50
2023-05-17T06:01:34.512Z,8.53
2023-05-17T06:04:01.224Z,8.87
2023-05-17T06:06:28.120Z,8.93
2023-05-17T06:08:55.172Z,10.27
2023-05-17T06:11:24.179Z,8.27
2023-05-17T06:13:50.789Z,8.33
2023-05-17T06:16:17.716Z,8.53
2023-05-17T06:18:44.450Z,8.97
2023-05-17T06:21:13.468Z,7.87
2023-05-17T06:23:40.125Z,8.90
2023-05-17T06:26:12.861Z,7.27
2023-05-17T06:28:39.525Z,6.87
2023-05-17T06:31:06.160Z,8.13
2023-05-17T06:33:35.191Z,7.93
2023-05-17T06:38:29.841Z,7.67
2023-05-17T06:40:58.638Z,8.07
2023-05-17T06:43:25.309Z,6.70
2023-05-17T06:45:51.954Z,7.23
2023-05-17T06:48:18.704Z,6.80
2023-05-17T06:50:45.796Z,7.37
2023-05-17T06:53:12.487Z,7.43
2023-05-17T06:55:39.183Z,7.17
2023-05-17T06:58:06.136Z,7.03
2023-05-17T07:00:33.190Z,6.20
2023-05-17T07:03:00.387Z,6.43
2023-05-17T07:05:29.308Z,6.80
2023-05-17T07:07:58.152Z,6.50
2023-05-17T07:10:24.920Z,5.57
2023-05-17T07:12:53.063Z,6.80
2023-05-17T07:15:19.953Z,6.37
2023-05-17T07:17:46.688Z,6.40
2023-05-17T07:20:14.738Z,6.77
2023-05-17T07:22:41.620Z,6.23
2023-05-17T07:25:09.052Z,6.80
2023-05-17T07:27:36.019Z,6.73
2023-05-17T07:30:03.606Z,6.13
2023-05-17T07:32:30.375Z,7.23
2023-05-17T07:34:57.083Z,7.07
2023-05-17T07:37:23.888Z,7.70
2023-05-17T07:39:50.761Z,7.50
2023-05-17T07:42:17.426Z,6.73
2023-05-17T07:44:44.204Z,6.43
2023-05-17T07:47:11.068Z,7.37
2023-05-17T07:49:37.825Z,7.17
2023-05-17T07:52:04.689Z,7.17
2023-05-17T07:54:31.575Z,6.90
2023-05-17T07:56:59.690Z,6.73
2023-05-17T07:59:26.422Z,7.03
2023-05-17T08:01:54.018Z,7.33
2023-05-17T08:04:20.768Z,6.47
2023-05-17T08:06:48.510Z,6.30
2023-05-17T08:09:18.605Z,6.77
2023-05-17T08:11:48.306Z,6.80
2023-05-17T08:14:16.551Z,6.93
2023-05-17T08:16:45.549Z,5.63
2023-05-17T08:19:13.936Z,7.37
2023-05-17T08:21:42.284Z,6.40
2023-05-17T08:24:09.532Z,6.73
2023-05-17T08:26:36.185Z,6.73
2023-05-17T08:29:03.238Z,5.97
2023-05-17T08:31:30.355Z,6.77
2023-05-17T08:33:57.494Z,7.00
2023-05-17T08:36:24.540Z,5.87
2023-05-17T08:38:52.508Z,6.33
2023-05-17T08:41:20.795Z,5.43
2023-05-17T08:43:51.884Z,5.97
2023-05-17T08:46:25.443Z,5.77
2023-05-17T08:49:00.191Z,5.73
2023-05-17T08:51:27.726Z,7.60
2023-05-17T08:53:55.325Z,5.30
2023-05-17T08:56:23.647Z,5.53
2023-05-17T08:58:56.953Z,6.30
2023-05-17T09:01:26.517Z,6.10
2023-05-17T09:03:54.515Z,7.13
2023-05-17T09:06:22.894Z,5.90
2023-05-17T09:08:54.973Z,6.10
2023-05-17T09:11:27.809Z,5.63
2023-05-17T09:13:58.054Z,5.17
2023-05-17T09:16:25.145Z,5.43
2023-05-17T09:18:56.313Z,5.50
2023-05-17T09:21:24.646Z,5.87
2023-05-17T09:24:04.772Z,5.60
2023-05-17T09:26:40.538Z,5.20
2023-05-17T09:29:11.926Z,5.40
2023-05-17T09:31:39.574Z,5.17
2023-05-17T09:34:09.676Z,5.53
2023-05-17T09:36:38.014Z,5.67
2023-05-17T09:39:07.816Z,5.70
2023-05-17T09:41:42.107Z,5.37
2023-05-17T09:44:10.059Z,5.00
2023-05-17T09:46:41.817Z,5.97
2023-05-17T09:49:09.480Z,4.40
2023-05-17T09:51:39.071Z,4.93
2023-05-17T09:54:10.480Z,6.37
2023-05-17T09:56:37.719Z,6.30
2023-05-17T09:59:10.978Z,5.60
2023-05-17T10:01:41.386Z,5.83
2023-05-17T10:04:12.244Z,5.87
2023-05-17T10:06:49.815Z,5.70
2023-05-17T10:09:21.943Z,5.47
2023-05-17T10:11:51.010Z,5.90
2023-05-17T10:14:19.104Z,6.33
2023-05-17T10:16:46.424Z,4.70
2023-05-17T10:19:14.258Z,4.87
2023-05-17T10:21:42.960Z,5.33
2023-05-17T10:24:11.459Z,5.70
2023-05-17T10:26:38.902Z,5.17
2023-05-17T10:29:06.193Z,5.30
2023-05-17T10:31:34.361Z,4.83
2023-05-17T10:34:03.566Z,4.90
2023-05-17T10:36:30.413Z,4.87
2023-05-17T10:38:59.008Z,4.90
2023-05-17T10:41:30.540Z,5.43
2023-05-17T10:43:58.219Z,4.70
2023-05-17T10:46:25.116Z,5.00
2023-05-17T10:48:53.130Z,4.77
2023-05-17T10:51:27.270Z,5.57
2023-05-17T10:54:03.126Z,4.80
2023-05-17T10:56:34.050Z,5.43
2023-05-17T10:59:23.346Z,4.97
2023-05-17T11:02:00.234Z,5.40
2023-05-17T11:04:38.275Z,5.13
2023-05-17T11:07:17.658Z,4.60
2023-05-17T11:09:46.930Z,4.80
2023-05-17T11:12:14.495Z,5.03
2023-05-17T11:14:54.668Z,5.70
2023-05-17T11:17:24.499Z,5.00
2023-05-17T11:19:54.344Z,5.43
2023-05-17T11:22:28.202Z,4.97
2023-05-17T11:24:57.934Z,4.87
2023-05-17T11:27:28.809Z,5.30
2023-05-17T11:29:55.786Z,4.70
2023-05-17T11:32:32.803Z,4.67
2023-05-17T11:35:02.531Z,5.10
2023-05-17T11:37:30.136Z,5.70
2023-05-17T11:40:28.942Z,6.30
2023-05-17T11:43:11.728Z,5.13
2023-05-17T11:46:06.837Z,5.93
2023-05-17T11:48:34.126Z,5.80
2023-05-17T11:51:02.395Z,6.67
2023-05-17T11:53:31.741Z,6.03
2023-05-17T11:56:04.524Z,6.40
2023-05-17T11:58:32.087Z,6.53
2023-05-17T12:01:02.625Z,6.03
2023-05-17T12:03:30.844Z,6.10
2023-05-17T12:06:12.634Z,6.17
2023-05-17T12:08:42.930Z,5.40
2023-05-17T12:11:14.802Z,6.57
2023-05-17T12:13:46.858Z,5.47
2023-05-17T12:16:17.894Z,6.00
2023-05-17T12:18:49.648Z,6.10
2023-05-17T12:21:21.603Z,5.43
2023-05-17T12:23:51.764Z,5.53
2023-05-17T12:26:24.920Z,6.57
2023-05-17T12:28:59.890Z,5.97
2023-05-17T12:31:33.673Z,5.93
2023-05-17T12:34:02.672Z,4.70
2023-05-17T12:36:31.646Z,5.07
2023-05-17T12:38:58.485Z,5.60
2023-05-17T12:41:26.642Z,5.00
2023-05-17T12:44:06.079Z,5.67
2023-05-17T12:46:40.462Z,5.17
2023-05-17T12:49:08.828Z,5.57
2023-05-17T12:51:48.507Z,6.43
2023-05-17T12:54:28.319Z,5.90
2023-05-17T12:56:55.785Z,6.17
2023-05-17T12:59:25.284Z,7.63
2023-05-17T13:01:55.769Z,7.10
2023-05-17T13:04:33.382Z,7.23
2023-05-17T13:07:03.008Z,6.40
2023-05-17T13:09:31.437Z,7.90
2023-05-17T13:12:23.093Z,6.30
2023-05-17T13:14:53.142Z,6.20
2023-05-17T13:17:24.619Z,5.73
2023-05-17T13:19:51.480Z,6.80
2023-05-17T13:22:18.289Z,6.83
2023-05-17T13:24:45.291Z,6.43
2023-05-17T13:27:12.597Z,6.87
2023-05-17T13:29:41.826Z,6.97
2023-05-17T13:32:11.496Z,6.80
2023-05-17T13:34:39.356Z,6.80
2023-05-17T13:37:09.582Z,7.33
2023-05-17T13:39:38.144Z,6.63
2023-05-17T13:42:05.702Z,8.00
2023-05-17T13:44:32.478Z,5.80
2023-05-17T13:46:59.398Z,7.00
2023-05-17T13:49:26.717Z,6.23
2023-05-17T13:51:53.412Z,5.60
2023-05-17T13:54:25.830Z,5.87
2023-05-17T13:56:53.768Z,5.53
2023-05-17T13:59:20.354Z,4.53
2023-05-17T14:01:46.960Z,5.43
2023-05-17T14:04:13.777Z,5.17
2023-05-17T14:06:42.295Z,5.83
2023-05-17T14:09:09.129Z,5.47
2023-05-17T14:11:36.080Z,5.60
2023-05-17T14:14:04.176Z,5.73
2023-05-17T14:16:31.343Z,4.93
2023-05-17T14:18:58.243Z,5.80
2023-05-17T14:21:26.026Z,5.40
2023-05-17T14:23:52.701Z,5.23
2023-05-17T14:26:19.422Z,4.97
2023-05-17T14:28:46.116Z,5.47
2023-05-17T14:31:12.753Z,4.97
2023-05-17T14:33:39.463Z,5.00
2023-05-17T14:36:06.759Z,5.03
2023-05-17T14:38:33.465Z,5.10
2023-05-17T14:41:04.094Z,4.73
2023-05-17T14:43:30.755Z,5.50
2023-05-17T14:45:57.537Z,6.53
2023-05-17T14:48:24.343Z,6.90
2023-05-17T14:50:51.525Z,5.47
2023-05-17T14:53:18.136Z,6.00
2023-05-17T14:55:45.072Z,5.17
2023-05-17T14:58:13.733Z,4.57
2023-05-17T15:00:41.990Z,4.10
2023-05-17T15:03:09.250Z,5.00
2023-05-17T15:05:36.491Z,5.73
2023-05-17T15:08:03.167Z,4.87
2023-05-17T15:10:30.092Z,4.40
2023-05-17T15:12:57.001Z,4.00
2023-05-17T15:15:23.838Z,4.07
2023-05-17T15:17:50.615Z,3.30
2023-05-17T15:20:18.973Z,4.03
2023-05-17T15:22:45.834Z,3.63
2023-05-17T15:25:12.661Z,3.80
2023-05-17T15:27:39.438Z,3.80
2023-05-17T15:30:07.385Z,4.00
2023-05-17T15:32:34.658Z,4.90
2023-05-17T15:35:01.915Z,4.30
2023-05-17T15:37:28.713Z,4.53
2023-05-17T15:39:55.387Z,3.80
2023-05-17T15:42:22.151Z,3.90
2023-05-17T15:44:48.784Z,3.90
2023-05-17T15:47:15.436Z,4.70
2023-05-17T15:49:42.140Z,4.03
2023-05-17T15:52:10.083Z,4.70
2023-05-17T15:54:36.761Z,5.10
2023-05-17T15:57:03.555Z,4.90
2023-05-17T15:59:30.417Z,3.80
2023-05-17T16:01:57.037Z,3.50
2023-05-17T16:04:23.830Z,3.30
2023-05-17T16:06:50.708Z,3.87
2023-05-17T16:09:17.457Z,4.63
2023-05-17T16:11:44.197Z,3.93
2023-05-17T16:14:10.988Z,4.37
2023-05-17T16:16:37.644Z,3.97
2023-05-17T16:19:05.912Z,5.20
2023-05-17T16:21:32.826Z,5.07
2023-05-17T16:23:59.544Z,5.03
2023-05-17T16:26:26.643Z,4.90
2023-05-17T16:28:53.595Z,4.57
2023-05-17T16:31:20.373Z,4.00
2023-05-17T16:33:47.237Z,4.33
2023-05-17T16:36:13.968Z,9.53
2023-05-17T16:38:40.884Z,6.23
2023-05-17T16:41:09.010Z,4.60
2023-05-17T16:43:35.638Z,3.87
2023-05-17T16:46:02.346Z,4.00
2023-05-17T16:48:29.243Z,4.83
2023-05-17T16:50:56.218Z,3.63
2023-05-17T16:53:22.976Z,3.53
2023-05-17T16:55:49.644Z,2.80
2023-05-17T16:58:16.295Z,3.63
2023-05-17T17:00:42.890Z,3.03
2023-05-17T17:03:10.163Z,3.37
2023-05-17T17:05:37.262Z,3.50
2023-05-17T17:08:03.929Z,3.00
2023-05-17T17:10:30.907Z,3.03
2023-05-17T17:12:57.772Z,5.73
2023-05-17T17:15:27.522Z,20.93
2023-05-17T17:17:54.286Z,5.70
2023-05-17T17:20:21.049Z,7.63
2023-05-17T17:22:47.699Z,31.53
2023-05-17T17:25:14.335Z,3.93
2023-05-17T17:27:41.153Z,4.43
2023-05-17T17:30:08.244Z,4.97
2023-05-17T17:32:35.268Z,3.40
2023-05-17T17:35:02.212Z,3.07
2023-05-17T17:37:28.957Z,2.60
2023-05-17T17:39:55.644Z,3.20
2023-05-17T17:42:22.313Z,2.70
2023-05-17T17:44:48.934Z,2.87
2023-05-17T17:47:15.741Z,2.90
2023-05-17T17:49:42.499Z,3.43
2023-05-17T17:52:09.133Z,2.57
2023-05-17T17:54:35.887Z,2.00
2023-05-17T17:57:03.247Z,3.80
2023-05-17T17:59:30.216Z,3.47
2023-05-17T18:01:56.909Z,3.17
2023-05-17T18:04:23.667Z,2.47
2023-05-17T18:06:50.465Z,2.97
2023-05-17T18:09:17.170Z,4.30
2023-05-17T18:11:43.873Z,4.00
2023-05-17T18:14:10.626Z,3.47
2023-05-17T18:16:37.845Z,3.13
2023-05-17T18:19:04.641Z,2.63
2023-05-17T18:21:31.622Z,2.80
2023-05-17T18:23:58.680Z,2.77
2023-05-17T18:26:25.962Z,2.80
2023-05-17T18:28:52.674Z,3.53
2023-05-17T18:31:19.508Z,2.67
2023-05-17T18:33:46.180Z,3.80
2023-05-17T18:36:12.851Z,3.50
2023-05-17T18:38:39.643Z,2.90
2023-05-17T18:41:06.856Z,3.53
2023-05-17T18:43:33.639Z,3.20
2023-05-17T18:46:00.363Z,3.23
2023-05-17T18:48:27.931Z,4.00
2023-05-17T18:50:55.081Z,2.53
2023-05-17T18:53:21.831Z,2.80
2023-05-17T18:55:48.549Z,3.03
2023-05-17T18:58:15.341Z,3.47
2023-05-17T19:00:42.096Z,3.50
2023-05-17T19:03:08.949Z,3.47
2023-05-17T19:05:35.653Z,5.57
2023-05-17T19:08:02.316Z,7.13
2023-05-17T19:10:29.287Z,3.83
2023-05-17T19:12:56.231Z,3.03
2023-05-17T19:15:23.025Z,3.60
2023-05-17T19:17:49.748Z,3.20
2023-05-17T19:20:16.774Z,4.83
2023-05-17T19:22:43.444Z,5.77
2023-05-17T19:25:10.401Z,3.83
2023-05-17T19:27:37.143Z,3.47
2023-05-17T19:30:04.484Z,5.03
2023-05-17T19:32:33.265Z,5.67
2023-05-17T19:35:02.387Z,5.30
2023-05-17T19:37:30.106Z,4.30
2023-05-17T19:39:58.706Z,3.70
2023-05-17T19:42:25.475Z,3.67
2023-05-17T19:44:52.186Z,3.57
2023-05-17T19:47:18.862Z,4.23
2023-05-17T19:49:45.574Z,4.63
2023-05-17T19:52:12.392Z,3.80
2023-05-17T19:54:39.098Z,3.17
2023-05-17T19:57:06.164Z,3.90
2023-05-17T19:59:32.869Z,3.70
2023-05-17T20:01:59.725Z,4.00
2023-05-17T20:04:26.452Z,3.23
2023-05-17T20:06:53.230Z,2.67
2023-05-17T20:09:19.961Z,2.47
2023-05-17T20:11:46.632Z,2.63
2023-05-17T20:14:13.372Z,1.97
2023-05-17T20:16:40.158Z,2.33
2023-05-17T20:19:06.961Z,1.83
2023-05-17T20:21:33.785Z,2.20
2023-05-17T20:24:05.373Z,1.60
2023-05-17T20:26:36.362Z,1.90
2023-05-17T20:29:06.109Z,1.53
2023-05-17T20:31:36.516Z,1.90
2023-05-17T20:34:04.224Z,2.20
2023-05-17T20:36:31.580Z,2.30
2023-05-17T20:38:58.308Z,1.90
2023-05-17T20:41:25.035Z,2.80
2023-05-17T20:43:51.944Z,1.80
2023-05-17T20:46:18.943Z,2.57
2023-05-17T20:48:47.848Z,2.50
2023-05-17T20:51:15.436Z,4.70
2023-05-17T20:53:42.244Z,3.33
2023-05-17T20:56:09.108Z,2.17
2023-05-17T20:58:35.918Z,2.40
2023-05-17T21:01:02.732Z,1.57
2023-05-17T21:03:33.910Z,1.67
2023-05-17T21:06:01.996Z,1.60
2023-05-17T21:08:28.748Z,1.70
2023-05-17T21:10:56.229Z,1.53
2023-05-17T21:13:25.845Z,1.87
2023-05-17T21:15:56.420Z,1.70
2023-05-17T21:18:23.946Z,1.40
2023-05-17T21:20:51.762Z,1.90
2023-05-17T21:23:19.208Z,1.70
2023-05-17T21:25:45.899Z,1.80
2023-05-17T21:28:12.564Z,1.67
2023-05-17T21:30:39.219Z,1.43
2023-05-17T21:33:06.073Z,1.70
2023-05-17T21:35:32.991Z,2.00
2023-05-17T21:37:59.761Z,1.60
2023-05-17T21:40:26.505Z,2.13
2023-05-17T21:42:53.177Z,1.87
2023-05-17T21:45:19.925Z,2.40
2023-05-17T21:47:46.639Z,2.40
2023-05-17T21:50:13.589Z,2.30
2023-05-17T21:52:40.507Z,1.83
2023-05-17T21:55:07.806Z,1.97
2023-05-17T21:57:36.550Z,1.20
2023-05-17T22:00:05.885Z,1.13
2023-05-17T22:02:35.197Z,1.20
2023-05-17T22:05:02.289Z,1.03
2023-05-17T22:07:28.917Z,0.97
2023-05-17T22:09:55.749Z,1.13
2023-05-17T22:12:25.467Z,1.10
2023-05-17T22:14:56.907Z,1.30
2023-05-17T22:17:39.339Z,1.10
2023-05-17T22:20:14.236Z,1.00
2023-05-17T22:22:41.005Z,1.17
2023-05-17T22:25:08.502Z,1.30
2023-05-17T22:27:35.230Z,1.13
2023-05-17T22:30:01.973Z,1.70
2023-05-17T22:32:28.684Z,1.27
2023-05-17T22:34:56.312Z,1.30
2023-05-17T22:37:23.688Z,1.20
2023-05-17T22:39:50.620Z,1.20
2023-05-17T22:42:17.329Z,1.23
2023-05-17T22:44:43.961Z,1.30
2023-05-17T22:47:14.969Z,1.20
2023-05-17T22:49:42.373Z,1.30
2023-05-17T22:52:11.229Z,1.03
2023-05-17T22:54:38.495Z,1.43
2023-05-17T22:57:05.618Z,1.40
2023-05-17T22:59:33.258Z,1.80
2023-05-17T23:02:02.258Z,1.50
2023-05-17T23:04:30.421Z,1.20
2023-05-17T23:07:02.461Z,1.00
2023-05-17T23:09:30.414Z,0.90
2023-05-17T23:11:59.484Z,1.00
2023-05-17T23:14:26.370Z,0.87
2023-05-17T23:16:53.048Z,1.00
2023-05-17T23:19:21.146Z,1.00
2023-05-17T23:21:49.120Z,0.93
2023-05-17T23:24:15.889Z,1.27
2023-05-17T23:26:42.566Z,1.30
2023-05-17T23:29:10.704Z,1.43
2023-05-17T23:31:37.944Z,1.17
2023-05-17T23:34:06.956Z,1.60
2023-05-17T23:36:33.731Z,1.53
2023-05-17T23:39:00.573Z,1.30
2023-05-17T23:41:29.497Z,1.23
2023-05-17T23:43:57.276Z,0.80
2023-05-17T23:46:24.209Z,1.27
2023-05-17T23:48:50.973Z,0.80
2023-05-17T23:51:21.453Z,0.70
2023-05-17T23:53:49.149Z,0.80
2023-05-17T23:56:17.571Z,0.90
2023-05-17T23:58:45.532Z,0.80
